sensor_id;sensor_type;location;lat;lon;timestamp;pressure;altitude;pressure_sealevel;temperature;humidity
26775;BME280;14362;51.902;7.626;2023-04-08T00:00:40;101617.38;;;4.47;100.00
26775;BME280;14362;51.902;7.626;2023-04-08T00:04:41;101617.13;;;4.49;100.00
26775;BME280;14362;51.902;7.626;2023-04-08T00:08:43;101623.22;;;4.51;100.00
26775;BME280;14362;51.902;7.626;2023-04-08T00:12:46;101616.28;;;4.48;100.00
26775;BME280;14362;51.902;7.626;2023-04-08T00:16:48;101612.06;;;4.41;100.00
26775;BME280;14362;51.902;7.626;2023-04-08T00:20:49;101612.03;;;4.36;100.00
26775;BME280;14362;51.902;7.626;2023-04-08T00:24:51;101615.00;;;4.29;100.00
26775;BME280;14362;51.902;7.626;2023-04-08T00:28:53;101620.16;;;4.21;100.00
26775;BME280;14362;51.902;7.626;2023-04-08T00:32:55;101620.09;;;4.11;100.00
26775;BME280;14362;51.902;7.626;2023-04-08T00:36:56;101632.22;;;4.10;100.00
26775;BME280;14362;51.902;7.626;2023-04-08T00:40:58;101621.38;;;4.03;100.00
26775;BME280;14362;51.902;7.626;2023-04-08T00:45:00;101627.16;;;4.02;100.00
26775;BME280;14362;51.902;7.626;2023-04-08T00:49:03;101632.34;;;3.99;100.00
26775;BME280;14362;51.902;7.626;2023-04-08T00:53:04;101633.59;;;3.86;100.00
26775;BME280;14362;51.902;7.626;2023-04-08T00:57:06;101643.03;;;3.90;100.00
26775;BME280;14362;51.902;7.626;2023-04-08T01:01:13;101645.47;;;3.87;100.00
26775;BME280;14362;51.902;7.626;2023-04-08T01:05:22;101645.91;;;3.79;100.00
26775;BME280;14362;51.902;7.626;2023-04-08T01:09:31;101645.66;;;3.80;100.00
26775;BME280;14362;51.902;7.626;2023-04-08T01:13:36;101643.88;;;3.69;100.00
26775;BME280;14362;51.902;7.626;2023-04-08T01:17:42;101650.41;;;3.63;100.00
26775;BME280;14362;51.902;7.626;2023-04-08T01:21:44;101642.72;;;3.65;100.00
26775;BME280;14362;51.902;7.626;2023-04-08T01:25:48;101650.88;;;3.55;100.00
26775;BME280;14362;51.902;7.626;2023-04-08T01:29:50;101652.19;;;3.53;100.00
26775;BME280;14362;51.902;7.626;2023-04-08T01:33:53;101649.91;;;3.45;100.00
26775;BME280;14362;51.902;7.626;2023-04-08T01:37:56;101652.31;;;3.41;100.00
26775;BME280;14362;51.902;7.626;2023-04-08T01:41:59;101654.94;;;3.31;100.00
26775;BME280;14362;51.902;7.626;2023-04-08T01:46:01;101660.72;;;3.30;100.00
26775;BME280;14362;51.902;7.626;2023-04-08T01:50:04;101656.53;;;3.27;100.00
26775;BME280;14362;51.902;7.626;2023-04-08T01:54:06;101657.56;;;3.21;100.00
26775;BME280;14362;51.902;7.626;2023-04-08T01:58:11;101665.56;;;3.23;100.00
26775;BME280;14362;51.902;7.626;2023-04-08T02:02:19;101660.50;;;3.15;100.00
26775;BME280;14362;51.902;7.626;2023-04-08T02:06:21;101668.16;;;3.13;100.00
26775;BME280;14362;51.902;7.626;2023-04-08T02:10:22;101670.03;;;3.07;100.00
26775;BME280;14362;51.902;7.626;2023-04-08T02:14:25;101662.59;;;3.08;100.00
26775;BME280;14362;51.902;7.626;2023-04-08T02:18:26;101671.28;;;3.00;100.00
26775;BME280;14362;51.902;7.626;2023-04-08T02:22:32;101668.41;;;2.90;100.00
26775;BME280;14362;51.902;7.626;2023-04-08T02:26:37;101668.41;;;2.90;100.00
26775;BME280;14362;51.902;7.626;2023-04-08T02:30:42;101677.97;;;2.88;100.00
26775;BME280;14362;51.902;7.626;2023-04-08T02:34:46;101672.41;;;2.83;100.00
26775;BME280;14362;51.902;7.626;2023-04-08T02:38:48;101681.97;;;2.80;100.00
26775;BME280;14362;51.902;7.626;2023-04-08T02:42:50;101683.97;;;2.85;100.00
26775;BME280;14362;51.902;7.626;2023-04-08T02:46:53;101686.91;;;2.78;100.00
26775;BME280;14362;51.902;7.626;2023-04-08T02:50:55;101687.66;;;2.74;100.00
26775;BME280;14362;51.902;7.626;2023-04-08T02:54:56;101689.59;;;2.73;100.00
26775;BME280;14362;51.902;7.626;2023-04-08T02:58:57;101690.59;;;2.67;100.00
26775;BME280;14362;51.902;7.626;2023-04-08T03:03:00;101692.47;;;2.67;100.00
26775;BME280;14362;51.902;7.626;2023-04-08T03:07:01;101700.00;;;2.71;100.00
26775;BME280;14362;51.902;7.626;2023-04-08T03:11:03;101700.25;;;2.70;100.00
26775;BME280;14362;51.902;7.626;2023-04-08T03:15:05;101701.25;;;2.80;100.00
26775;BME280;14362;51.902;7.626;2023-04-08T03:19:08;101691.09;;;2.81;100.00
26775;BME280;14362;51.902;7.626;2023-04-08T03:23:10;101695.84;;;2.85;100.00
26775;BME280;14362;51.902;7.626;2023-04-08T03:27:11;101698.75;;;2.95;100.00
26775;BME280;14362;51.902;7.626;2023-04-08T03:31:13;101694.22;;;3.05;100.00
26775;BME280;14362;51.902;7.626;2023-04-08T03:35:16;101689.97;;;3.14;100.00
26775;BME280;14362;51.902;7.626;2023-04-08T03:39:18;101691.97;;;3.19;100.00
26775;BME280;14362;51.902;7.626;2023-04-08T03:43:19;101700.88;;;3.26;100.00
26775;BME280;14362;51.902;7.626;2023-04-08T03:47:21;101701.59;;;3.38;100.00
26775;BME280;14362;51.902;7.626;2023-04-08T03:51:23;101702.19;;;3.40;100.00
26775;BME280;14362;51.902;7.626;2023-04-08T03:55:25;101706.34;;;3.42;100.00
26775;BME280;14362;51.902;7.626;2023-04-08T03:59:26;101695.91;;;3.44;100.00
26775;BME280;14362;51.902;7.626;2023-04-08T04:03:28;101700.72;;;3.54;100.00
26775;BME280;14362;51.902;7.626;2023-04-08T04:07:30;101708.75;;;3.55;100.00
26775;BME280;14362;51.902;7.626;2023-04-08T04:11:33;101700.50;;;3.55;100.00
26775;BME280;14362;51.902;7.626;2023-04-08T04:15:37;101707.22;;;3.64;100.00
26775;BME280;14362;51.902;7.626;2023-04-08T04:19:38;101702.59;;;3.70;100.00
26775;BME280;14362;51.902;7.626;2023-04-08T04:23:41;101708.69;;;3.72;100.00
26775;BME280;14362;51.902;7.626;2023-04-08T04:27:42;101716.94;;;3.72;100.00
26775;BME280;14362;51.902;7.626;2023-04-08T04:31:44;101716.75;;;3.78;100.00
26775;BME280;14362;51.902;7.626;2023-04-08T04:35:45;101722.63;;;3.82;100.00
26775;BME280;14362;51.902;7.626;2023-04-08T04:39:48;101716.00;;;3.83;100.00
26775;BME280;14362;51.902;7.626;2023-04-08T04:43:49;101722.94;;;3.85;100.00
26775;BME280;14362;51.902;7.626;2023-04-08T04:47:51;101729.59;;;3.89;100.00
26775;BME280;14362;51.902;7.626;2023-04-08T04:51:52;101726.91;;;3.94;100.00
26775;BME280;14362;51.902;7.626;2023-04-08T04:55:55;101738.00;;;3.99;100.00
26775;BME280;14362;51.902;7.626;2023-04-08T04:59:56;101736.91;;;4.00;100.00
26775;BME280;14362;51.902;7.626;2023-04-08T05:03:58;101740.56;;;4.05;100.00
26775;BME280;14362;51.902;7.626;2023-04-08T05:07:59;101748.06;;;4.10;100.00
26775;BME280;14362;51.902;7.626;2023-04-08T05:12:02;101743.44;;;4.15;100.00
26775;BME280;14362;51.902;7.626;2023-04-08T05:16:04;101747.66;;;4.23;100.00
26775;BME280;14362;51.902;7.626;2023-04-08T05:20:06;101753.56;;;4.31;100.00
26775;BME280;14362;51.902;7.626;2023-04-08T05:24:08;101747.84;;;4.38;100.00
26775;BME280;14362;51.902;7.626;2023-04-08T05:28:11;101748.75;;;4.43;100.00
26775;BME280;14362;51.902;7.626;2023-04-08T05:32:12;101753.53;;;4.53;100.00
26775;BME280;14362;51.902;7.626;2023-04-08T05:36:16;101760.25;;;4.62;100.00
26775;BME280;14362;51.902;7.626;2023-04-08T05:40:17;101768.66;;;4.72;100.00
26775;BME280;14362;51.902;7.626;2023-04-08T05:44:20;101767.38;;;4.84;100.00
26775;BME280;14362;51.902;7.626;2023-04-08T05:48:21;101772.16;;;4.94;100.00
26775;BME280;14362;51.902;7.626;2023-04-08T05:52:22;101775.81;;;4.99;100.00
26775;BME280;14362;51.902;7.626;2023-04-08T05:56:24;101785.81;;;5.05;100.00
26775;BME280;14362;51.902;7.626;2023-04-08T06:00:27;101780.91;;;5.12;100.00
26775;BME280;14362;51.902;7.626;2023-04-08T06:04:28;101784.00;;;5.20;100.00
26775;BME280;14362;51.902;7.626;2023-04-08T06:08:30;101782.41;;;5.29;100.00
26775;BME280;14362;51.902;7.626;2023-04-08T06:12:34;101779.47;;;5.41;100.00
26775;BME280;14362;51.902;7.626;2023-04-08T06:16:37;101783.41;;;5.50;100.00
26775;BME280;14362;51.902;7.626;2023-04-08T06:20:38;101786.34;;;5.75;100.00
26775;BME280;14362;51.902;7.626;2023-04-08T06:24:40;101791.78;;;6.01;100.00
26775;BME280;14362;51.902;7.626;2023-04-08T06:28:41;101794.63;;;6.16;100.00
26775;BME280;14362;51.902;7.626;2023-04-08T06:32:44;101800.25;;;6.36;100.00
26775;BME280;14362;51.902;7.626;2023-04-08T06:36:46;101800.81;;;6.43;100.00
26775;BME280;14362;51.902;7.626;2023-04-08T06:40:49;101798.03;;;6.43;100.00
26775;BME280;14362;51.902;7.626;2023-04-08T06:44:50;101801.63;;;6.38;100.00
26775;BME280;14362;51.902;7.626;2023-04-08T06:48:53;101811.16;;;6.72;100.00
26775;BME280;14362;51.902;7.626;2023-04-08T06:52:55;101813.94;;;6.72;100.00
26775;BME280;14362;51.902;7.626;2023-04-08T06:56:56;101816.16;;;6.65;100.00
26775;BME280;14362;51.902;7.626;2023-04-08T07:00:58;101814.22;;;6.81;100.00
26775;BME280;14362;51.902;7.626;2023-04-08T07:05:01;101822.84;;;6.84;100.00
26775;BME280;14362;51.902;7.626;2023-04-08T07:09:03;101825.31;;;6.81;100.00
26775;BME280;14362;51.902;7.626;2023-04-08T07:13:04;101828.16;;;6.96;100.00
26775;BME280;14362;51.902;7.626;2023-04-08T07:17:06;101828.66;;;6.88;100.00
26775;BME280;14362;51.902;7.626;2023-04-08T07:21:08;101837.31;;;7.06;100.00
26775;BME280;14362;51.902;7.626;2023-04-08T07:25:10;101849.25;;;7.21;100.00
26775;BME280;14362;51.902;7.626;2023-04-08T07:29:12;101832.59;;;7.07;100.00
26775;BME280;14362;51.902;7.626;2023-04-08T07:33:13;101855.84;;;6.91;100.00
26775;BME280;14362;51.902;7.626;2023-04-08T07:37:16;101846.69;;;6.90;100.00
26775;BME280;14362;51.902;7.626;2023-04-08T07:41:18;101845.31;;;6.93;100.00
26775;BME280;14362;51.902;7.626;2023-04-08T07:45:20;101857.00;;;7.09;100.00
26775;BME280;14362;51.902;7.626;2023-04-08T07:49:21;101858.66;;;7.10;100.00
26775;BME280;14362;51.902;7.626;2023-04-08T07:53:24;101858.91;;;7.09;100.00
26775;BME280;14362;51.902;7.626;2023-04-08T07:57:25;101856.16;;;7.04;100.00
26775;BME280;14362;51.902;7.626;2023-04-08T08:01:27;101858.91;;;7.09;100.00
26775;BME280;14362;51.902;7.626;2023-04-08T08:05:30;101873.09;;;7.22;100.00
26775;BME280;14362;51.902;7.626;2023-04-08T08:09:33;101878.13;;;7.45;100.00
26775;BME280;14362;51.902;7.626;2023-04-08T08:13:34;101888.69;;;7.73;100.00
26775;BME280;14362;51.902;7.626;2023-04-08T08:17:35;101891.97;;;7.75;100.00
26775;BME280;14362;51.902;7.626;2023-04-08T08:21:37;101881.44;;;7.82;100.00
26775;BME280;14362;51.902;7.626;2023-04-08T08:25:40;101889.22;;;7.85;100.00
26775;BME280;14362;51.902;7.626;2023-04-08T08:29:42;101887.81;;;7.73;100.00
26775;BME280;14362;51.902;7.626;2023-04-08T08:33:43;101892.81;;;7.71;100.00
26775;BME280;14362;51.902;7.626;2023-04-08T08:37:45;101897.00;;;7.83;100.00
26775;BME280;14362;51.902;7.626;2023-04-08T08:41:47;101901.44;;;7.84;100.00
26775;BME280;14362;51.902;7.626;2023-04-08T08:45:49;101903.34;;;8.08;100.00
26775;BME280;14362;51.902;7.626;2023-04-08T08:49:50;101909.66;;;8.54;100.00
26775;BME280;14362;51.902;7.626;2023-04-08T08:53:52;101912.84;;;8.91;100.00
26775;BME280;14362;51.902;7.626;2023-04-08T08:57:55;101915.63;;;8.91;100.00
26775;BME280;14362;51.902;7.626;2023-04-08T09:01:56;101921.03;;;8.67;100.00
26775;BME280;14362;51.902;7.626;2023-04-08T09:05:59;101919.59;;;8.70;100.00
26775;BME280;14362;51.902;7.626;2023-04-08T09:10:01;101919.97;;;8.43;100.00
26775;BME280;14362;51.902;7.626;2023-04-08T09:14:04;101922.75;;;8.43;100.00
26775;BME280;14362;51.902;7.626;2023-04-08T09:18:20;101914.97;;;8.50;100.00
26775;BME280;14362;51.902;7.626;2023-04-08T09:22:22;101909.91;;;8.62;100.00
26775;BME280;14362;51.902;7.626;2023-04-08T09:26:23;101915.69;;;8.86;100.00
26775;BME280;14362;51.902;7.626;2023-04-08T09:30:27;101917.53;;;9.05;100.00
26775;BME280;14362;51.902;7.626;2023-04-08T09:34:29;101919.66;;;9.23;100.00
26775;BME280;14362;51.902;7.626;2023-04-08T09:38:33;101920.41;;;9.38;100.00
26775;BME280;14362;51.902;7.626;2023-04-08T09:42:36;101916.16;;;9.46;100.00
26775;BME280;14362;51.902;7.626;2023-04-08T09:46:50;101918.88;;;9.56;100.00
26775;BME280;14362;51.902;7.626;2023-04-08T09:50:53;101919.13;;;9.59;100.00
26775;BME280;14362;51.902;7.626;2023-04-08T09:55:01;101934.13;;;9.63;100.00
26775;BME280;14362;51.902;7.626;2023-04-08T09:59:12;101938.47;;;9.41;100.00
26775;BME280;14362;51.902;7.626;2023-04-08T10:03:25;101928.03;;;9.61;100.00
26775;BME280;14362;51.902;7.626;2023-04-08T10:07:28;101922.66;;;9.31;100.00
26775;BME280;14362;51.902;7.626;2023-04-08T10:11:30;101921.16;;;9.49;100.00
26775;BME280;14362;51.902;7.626;2023-04-08T10:15:32;101920.72;;;9.32;100.00
26775;BME280;14362;51.902;7.626;2023-04-08T10:19:37;101920.66;;;9.37;100.00
26775;BME280;14362;51.902;7.626;2023-04-08T10:23:52;101923.22;;;9.72;100.00
26775;BME280;14362;51.902;7.626;2023-04-08T10:27:54;101925.94;;;9.77;100.00
26775;BME280;14362;51.902;7.626;2023-04-08T10:31:56;101930.13;;;9.79;100.00
26775;BME280;14362;51.902;7.626;2023-04-08T10:36:07;101936.38;;;10.00;100.00
26775;BME280;14362;51.902;7.626;2023-04-08T10:40:17;101929.34;;;10.07;100.00
26775;BME280;14362;51.902;7.626;2023-04-08T10:44:21;101924.75;;;10.21;100.00
26775;BME280;14362;51.902;7.626;2023-04-08T10:48:23;101930.06;;;10.46;100.00
26775;BME280;14362;51.902;7.626;2023-04-08T10:52:26;101930.66;;;10.43;100.00
26775;BME280;14362;51.902;7.626;2023-04-08T10:56:28;101928.63;;;10.25;100.00
26775;BME280;14362;51.902;7.626;2023-04-08T11:00:32;101931.09;;;10.55;100.00
26775;BME280;14362;51.902;7.626;2023-04-08T11:04:34;101928.53;;;10.82;100.00
26775;BME280;14362;51.902;7.626;2023-04-08T11:08:43;101926.94;;;10.76;100.00
26775;BME280;14362;51.902;7.626;2023-04-08T11:12:44;101920.13;;;10.87;100.00
26775;BME280;14362;51.902;7.626;2023-04-08T11:16:46;101916.69;;;10.71;100.00
26775;BME280;14362;51.902;7.626;2023-04-08T11:20:49;101917.56;;;10.67;100.00
26775;BME280;14362;51.902;7.626;2023-04-08T11:24:52;101908.53;;;10.98;100.00
26775;BME280;14362;51.902;7.626;2023-04-08T11:28:54;101909.91;;;11.01;100.00
26775;BME280;14362;51.902;7.626;2023-04-08T11:32:56;101915.19;;;10.79;100.00
26775;BME280;14362;51.902;7.626;2023-04-08T11:36:58;101920.53;;;10.75;100.00
26775;BME280;14362;51.902;7.626;2023-04-08T11:41:00;101916.84;;;10.80;100.00
26775;BME280;14362;51.902;7.626;2023-04-08T11:45:08;101909.69;;;11.16;100.00
26775;BME280;14362;51.902;7.626;2023-04-08T11:49:10;101914.66;;;11.18;100.00
26775;BME280;14362;51.902;7.626;2023-04-08T11:53:16;101914.84;;;11.45;100.00
26775;BME280;14362;51.902;7.626;2023-04-08T11:57:28;101914.16;;;11.35;100.00
26775;BME280;14362;51.902;7.626;2023-04-08T12:01:30;101912.06;;;11.64;100.00
26775;BME280;14362;51.902;7.626;2023-04-08T12:05:32;101918.03;;;11.39;100.00
26775;BME280;14362;51.902;7.626;2023-04-08T12:09:33;101916.38;;;11.38;100.00
26775;BME280;14362;51.902;7.626;2023-04-08T12:13:36;101919.00;;;11.48;100.00
26775;BME280;14362;51.902;7.626;2023-04-08T12:17:38;101919.84;;;11.48;100.00
26775;BME280;14362;51.902;7.626;2023-04-08T12:21:39;101915.97;;;11.44;100.00
26775;BME280;14362;51.902;7.626;2023-04-08T12:25:41;101917.66;;;11.45;100.00
26775;BME280;14362;51.902;7.626;2023-04-08T12:29:44;101912.00;;;11.50;100.00
26775;BME280;14362;51.902;7.626;2023-04-08T12:33:45;101920.72;;;11.44;100.00
26775;BME280;14362;51.902;7.626;2023-04-08T12:37:46;101921.91;;;11.61;100.00
26775;BME280;14362;51.902;7.626;2023-04-08T12:41:48;101919.78;;;11.72;100.00
26775;BME280;14362;51.902;7.626;2023-04-08T12:45:51;101910.66;;;11.66;100.00
26775;BME280;14362;51.902;7.626;2023-04-08T12:49:52;101919.53;;;11.87;100.00
26775;BME280;14362;51.902;7.626;2023-04-08T12:53:53;101920.03;;;11.57;100.00
26775;BME280;14362;51.902;7.626;2023-04-08T12:57:55;101922.22;;;11.60;100.00
26775;BME280;14362;51.902;7.626;2023-04-08T13:01:58;101921.97;;;11.56;100.00
26775;BME280;14362;51.902;7.626;2023-04-08T13:05:59;101926.41;;;11.57;100.00
26775;BME280;14362;51.902;7.626;2023-04-08T13:10:01;101911.81;;;11.42;100.00
26775;BME280;14362;51.902;7.626;2023-04-08T13:14:02;101921.50;;;11.49;100.00
26775;BME280;14362;51.902;7.626;2023-04-08T13:18:05;101916.97;;;11.53;100.00
26775;BME280;14362;51.902;7.626;2023-04-08T13:22:07;101924.16;;;11.41;100.00
26775;BME280;14362;51.902;7.626;2023-04-08T13:26:08;101917.72;;;11.40;100.00
26775;BME280;14362;51.902;7.626;2023-04-08T13:30:11;101915.66;;;11.46;100.00
26775;BME280;14362;51.902;7.626;2023-04-08T13:34:13;101913.72;;;11.46;100.00
26775;BME280;14362;51.902;7.626;2023-04-08T13:38:15;101914.44;;;11.57;100.00
26775;BME280;14362;51.902;7.626;2023-04-08T13:42:17;101919.78;;;11.72;100.00
26775;BME280;14362;51.902;7.626;2023-04-08T13:46:18;101911.47;;;11.67;100.00
26775;BME280;14362;51.902;7.626;2023-04-08T13:50:21;101928.94;;;11.59;100.00
26775;BME280;14362;51.902;7.626;2023-04-08T13:54:22;101924.63;;;11.66;100.00
26775;BME280;14362;51.902;7.626;2023-04-08T13:58:24;101919.16;;;11.56;100.00
26775;BME280;14362;51.902;7.626;2023-04-08T14:02:26;101923.09;;;11.55;100.00
26775;BME280;14362;51.902;7.626;2023-04-08T14:06:29;101930.16;;;11.48;100.00
26775;BME280;14362;51.902;7.626;2023-04-08T14:10:30;101927.00;;;11.36;100.00
26775;BME280;14362;51.902;7.626;2023-04-08T14:14:31;101928.25;;;11.25;100.00
26775;BME280;14362;51.902;7.626;2023-04-08T14:18:33;101924.22;;;11.36;100.00
26775;BME280;14362;51.902;7.626;2023-04-08T14:22:36;101923.81;;;11.42;100.00
26775;BME280;14362;51.902;7.626;2023-04-08T14:26:37;101924.03;;;11.46;100.00
26775;BME280;14362;51.902;7.626;2023-04-08T14:30:38;101931.53;;;11.50;100.00
26775;BME280;14362;51.902;7.626;2023-04-08T14:34:40;101931.06;;;11.43;100.00
26775;BME280;14362;51.902;7.626;2023-04-08T14:38:43;101920.81;;;11.39;100.00
26775;BME280;14362;51.902;7.626;2023-04-08T14:42:45;101917.03;;;11.30;100.00
26775;BME280;14362;51.902;7.626;2023-04-08T14:46:48;101921.00;;;11.24;100.00
26775;BME280;14362;51.902;7.626;2023-04-08T14:50:50;101911.31;;;11.40;100.00
26775;BME280;14362;51.902;7.626;2023-04-08T14:54:53;101909.50;;;11.30;100.00
26775;BME280;14362;51.902;7.626;2023-04-08T14:58:54;101910.19;;;11.41;100.00
26775;BME280;14362;51.902;7.626;2023-04-08T15:02:56;101910.53;;;11.53;100.00
26775;BME280;14362;51.902;7.626;2023-04-08T15:06:58;101907.22;;;11.32;100.00
26775;BME280;14362;51.902;7.626;2023-04-08T15:11:00;101906.34;;;11.55;100.00
26775;BME280;14362;51.902;7.626;2023-04-08T15:15:02;101899.03;;;11.59;100.00
26775;BME280;14362;51.902;7.626;2023-04-08T15:19:04;101895.50;;;11.54;100.00
26775;BME280;14362;51.902;7.626;2023-04-08T15:23:05;101886.50;;;11.57;100.00
26775;BME280;14362;51.902;7.626;2023-04-08T15:27:08;101896.16;;;11.64;100.00
26775;BME280;14362;51.902;7.626;2023-04-08T15:31:09;101901.31;;;11.52;100.00
26775;BME280;14362;51.902;7.626;2023-04-08T15:35:11;101902.84;;;11.45;100.00
26775;BME280;14362;51.902;7.626;2023-04-08T15:39:13;101908.22;;;11.41;100.00
26775;BME280;14362;51.902;7.626;2023-04-08T15:43:15;101903.28;;;11.33;100.00
26775;BME280;14362;51.902;7.626;2023-04-08T15:47:17;101909.69;;;11.52;100.00
26775;BME280;14362;51.902;7.626;2023-04-08T15:51:18;101911.06;;;11.36;100.00
26775;BME280;14362;51.902;7.626;2023-04-08T15:55:20;101903.63;;;11.50;100.00
26775;BME280;14362;51.902;7.626;2023-04-08T15:59:23;101906.69;;;11.49;100.00
26775;BME280;14362;51.902;7.626;2023-04-08T16:03:24;101903.91;;;11.49;100.00
26775;BME280;14362;51.902;7.626;2023-04-08T16:07:26;101900.66;;;11.42;100.00
26775;BME280;14362;51.902;7.626;2023-04-08T16:11:27;101906.84;;;11.20;100.00
26775;BME280;14362;51.902;7.626;2023-04-08T16:15:30;101900.34;;;11.25;100.00
26775;BME280;14362;51.902;7.626;2023-04-08T16:19:33;101904.19;;;11.29;100.00
26775;BME280;14362;51.902;7.626;2023-04-08T16:23:35;101913.75;;;11.23;100.00
26775;BME280;14362;51.902;7.626;2023-04-08T16:27:37;101911.22;;;11.26;100.00
26775;BME280;14362;51.902;7.626;2023-04-08T16:31:40;101909.94;;;11.19;100.00
26775;BME280;14362;51.902;7.626;2023-04-08T16:35:41;101914.38;;;11.20;100.00
26775;BME280;14362;51.902;7.626;2023-04-08T16:39:43;101913.00;;;11.18;100.00
26775;BME280;14362;51.902;7.626;2023-04-08T16:43:45;101916.41;;;11.15;100.00
26775;BME280;14362;51.902;7.626;2023-04-08T16:47:48;101910.38;;;11.08;100.00
26775;BME280;14362;51.902;7.626;2023-04-08T16:51:49;101917.63;;;11.09;100.00
26775;BME280;14362;51.902;7.626;2023-04-08T16:55:51;101910.50;;;10.98;100.00
26775;BME280;14362;51.902;7.626;2023-04-08T16:59:52;101919.34;;;11.05;100.00
26775;BME280;14362;51.902;7.626;2023-04-08T17:03:55;101907.31;;;11.04;100.00
26775;BME280;14362;51.902;7.626;2023-04-08T17:07:56;101913.81;;;11.00;100.00
26775;BME280;14362;51.902;7.626;2023-04-08T17:11:58;101911.22;;;10.85;100.00
26775;BME280;14362;51.902;7.626;2023-04-08T17:16:00;101919.72;;;10.98;100.00
26775;BME280;14362;51.902;7.626;2023-04-08T17:20:03;101923.03;;;10.77;100.00
26775;BME280;14362;51.902;7.626;2023-04-08T17:24:05;101922.38;;;10.85;100.00
26775;BME280;14362;51.902;7.626;2023-04-08T17:28:07;101923.34;;;10.75;100.00
26775;BME280;14362;51.902;7.626;2023-04-08T17:32:08;101932.34;;;10.67;100.00
26775;BME280;14362;51.902;7.626;2023-04-08T17:36:12;101924.28;;;10.66;100.00
26775;BME280;14362;51.902;7.626;2023-04-08T17:40:16;101934.91;;;10.64;100.00
26775;BME280;14362;51.902;7.626;2023-04-08T17:44:17;101931.97;;;10.50;100.00
26775;BME280;14362;51.902;7.626;2023-04-08T17:48:20;101930.94;;;10.46;100.00
26775;BME280;14362;51.902;7.626;2023-04-08T17:52:23;101932.56;;;10.47;100.00
26775;BME280;14362;51.902;7.626;2023-04-08T17:56:24;101942.31;;;10.50;100.00
26775;BME280;14362;51.902;7.626;2023-04-08T18:00:26;101946.00;;;10.45;100.00
26775;BME280;14362;51.902;7.626;2023-04-08T18:04:29;101949.97;;;10.34;100.00
26775;BME280;14362;51.902;7.626;2023-04-08T18:08:31;101952.69;;;10.44;100.00
26775;BME280;14362;51.902;7.626;2023-04-08T18:12:33;101964.22;;;10.33;100.00
26775;BME280;14362;51.902;7.626;2023-04-08T18:16:34;101975.09;;;10.29;100.00
26775;BME280;14362;51.902;7.626;2023-04-08T18:20:36;101966.69;;;10.34;100.00
26775;BME280;14362;51.902;7.626;2023-04-08T18:24:38;101982.06;;;10.32;100.00
26775;BME280;14362;51.902;7.626;2023-04-08T18:28:40;101982.44;;;10.20;100.00
26775;BME280;14362;51.902;7.626;2023-04-08T18:32:41;101993.06;;;10.47;100.00
26775;BME280;14362;51.902;7.626;2023-04-08T18:36:43;101992.38;;;10.31;100.00
26775;BME280;14362;51.902;7.626;2023-04-08T18:40:45;101992.16;;;10.23;100.00
26775;BME280;14362;51.902;7.626;2023-04-08T18:44:47;101993.25;;;10.27;100.00
26775;BME280;14362;51.902;7.626;2023-04-08T18:48:48;101997.25;;;10.16;100.00
26775;BME280;14362;51.902;7.626;2023-04-08T18:52:50;101999.50;;;10.14;100.00
26775;BME280;14362;51.902;7.626;2023-04-08T18:56:53;102002.53;;;10.18;100.00
26775;BME280;14362;51.902;7.626;2023-04-08T19:00:54;102009.72;;;10.23;100.00
26775;BME280;14362;51.902;7.626;2023-04-08T19:04:56;102006.75;;;10.15;100.00
26775;BME280;14362;51.902;7.626;2023-04-08T19:08:57;102021.00;;;10.09;100.00
26775;BME280;14362;51.902;7.626;2023-04-08T19:13:00;102019.63;;;10.06;100.00
26775;BME280;14362;51.902;7.626;2023-04-08T19:17:02;102020.16;;;10.08;100.00
26775;BME280;14362;51.902;7.626;2023-04-08T19:21:03;102022.16;;;9.98;100.00
26775;BME280;14362;51.902;7.626;2023-04-08T19:25:05;102019.16;;;9.89;100.00
26775;BME280;14362;51.902;7.626;2023-04-08T19:29:08;102025.03;;;9.88;100.00
26775;BME280;14362;51.902;7.626;2023-04-08T19:33:11;102023.06;;;9.83;100.00
26775;BME280;14362;51.902;7.626;2023-04-08T19:37:13;102024.19;;;9.82;100.00
26775;BME280;14362;51.902;7.626;2023-04-08T19:41:14;102025.28;;;9.86;100.00
26775;BME280;14362;51.902;7.626;2023-04-08T19:45:17;102026.75;;;9.74;100.00
26775;BME280;14362;51.902;7.626;2023-04-08T19:49:18;102027.81;;;9.88;100.00
26775;BME280;14362;51.902;7.626;2023-04-08T19:53:20;102022.03;;;9.79;100.00
26775;BME280;14362;51.902;7.626;2023-04-08T19:57:22;102034.31;;;9.68;100.00
26775;BME280;14362;51.902;7.626;2023-04-08T20:01:25;102025.41;;;9.66;100.00
26775;BME280;14362;51.902;7.626;2023-04-08T20:05:26;102032.09;;;9.70;100.00
26775;BME280;14362;51.902;7.626;2023-04-08T20:09:28;102036.22;;;9.73;100.00
26775;BME280;14362;51.902;7.626;2023-04-08T20:13:29;102042.09;;;9.71;100.00
26775;BME280;14362;51.902;7.626;2023-04-08T20:17:32;102037.44;;;9.57;100.00
26775;BME280;14362;51.902;7.626;2023-04-08T20:21:34;102039.09;;;9.58;100.00
26775;BME280;14362;51.902;7.626;2023-04-08T20:25:35;102035.78;;;9.56;100.00
26775;BME280;14362;51.902;7.626;2023-04-08T20:29:36;102047.19;;;9.59;100.00
26775;BME280;14362;51.902;7.626;2023-04-08T20:33:39;102036.63;;;9.51;100.00
26775;BME280;14362;51.902;7.626;2023-04-08T20:37:43;102039.72;;;9.50;100.00
26775;BME280;14362;51.902;7.626;2023-04-08T20:41:45;102049.19;;;9.49;100.00
26775;BME280;14362;51.902;7.626;2023-04-08T20:45:46;102041.38;;;9.51;100.00
26775;BME280;14362;51.902;7.626;2023-04-08T20:49:49;102038.88;;;9.44;100.00
26775;BME280;14362;51.902;7.626;2023-04-08T20:53:51;102046.66;;;9.47;100.00
26775;BME280;14362;51.902;7.626;2023-04-08T20:57:52;102047.28;;;9.39;100.00